createdAt,value
2022-08-17T00:00:43.193Z,50.82
2022-08-17T00:03:22.416Z,50.90
2022-08-17T00:05:56.751Z,50.85
2022-08-17T00:08:28.915Z,51.02
2022-08-17T00:11:00.459Z,51.03
2022-08-17T00:13:35.631Z,51.20
2022-08-17T00:16:08.242Z,51.27
2022-08-17T00:19:06.566Z,51.46
2022-08-17T00:22:10.622Z,51.57
2022-08-17T00:24:25.293Z,51.70
2022-08-17T00:26:54.593Z,51.80
2022-08-17T00:29:29.419Z,51.93
2022-08-17T00:33:22.800Z,51.93
2022-08-17T00:35:13.776Z,52.14
2022-08-17T00:45:07.424Z,52.58
2022-08-17T00:47:59.139Z,52.55
2022-08-17T00:50:30.409Z,52.55
2022-08-17T00:53:04.124Z,52.52
2022-08-17T00:55:34.196Z,52.45
2022-08-17T00:58:05.608Z,52.58
2022-08-17T01:00:38.989Z,52.50
2022-08-17T01:06:28.811Z,52.38
2022-08-17T01:09:04.821Z,52.32
2022-08-17T01:11:35.881Z,52.25
2022-08-17T01:14:15.895Z,52.35
2022-08-17T01:16:45.168Z,52.48
2022-08-17T01:19:19.692Z,52.55
2022-08-17T01:21:55.528Z,52.55
2022-08-17T01:24:28.025Z,52.78
2022-08-17T01:26:57.932Z,52.80
2022-08-17T01:29:30.264Z,52.82
2022-08-17T01:32:03.151Z,52.93
2022-08-17T01:34:42.733Z,52.99
2022-08-17T01:37:15.399Z,53.03
2022-08-17T01:39:51.601Z,53.15
2022-08-17T01:49:32.300Z,53.28
2022-08-17T01:50:17.721Z,53.45
2022-08-17T01:52:54.125Z,53.57
2022-08-17T01:55:30.584Z,53.63
2022-08-17T01:58:02.168Z,53.60
2022-08-17T02:00:48.322Z,53.67
2022-08-17T02:03:22.797Z,53.91
2022-08-17T02:05:58.935Z,54.12
2022-08-17T02:09:01.656Z,54.42
2022-08-17T02:11:38.852Z,54.58
2022-08-17T02:14:10.456Z,54.70
2022-08-17T02:16:43.852Z,54.76
2022-08-17T02:19:15.568Z,54.69
2022-08-17T02:21:52.444Z,54.73
2022-08-17T02:24:59.386Z,54.72
2022-08-17T02:27:15.459Z,54.59
2022-08-17T02:29:45.005Z,54.67
2022-08-17T02:32:35.801Z,54.61
2022-08-17T02:35:09.284Z,54.45
2022-08-17T02:37:38.561Z,54.61
2022-08-17T02:40:13.569Z,54.58
2022-08-17T02:42:49.989Z,54.40
2022-08-17T02:45:24.218Z,54.57
2022-08-17T02:48:02.484Z,54.64
2022-08-17T02:51:04.494Z,54.89
2022-08-17T02:56:22.978Z,55.04
2022-08-17T03:01:15.294Z,55.34
2022-08-17T03:01:25.171Z,55.50
2022-08-17T03:03:45.631Z,55.51
2022-08-17T03:06:16.289Z,55.59
2022-08-17T03:08:45.986Z,55.58
2022-08-17T03:11:15.709Z,55.61
2022-08-17T03:13:50.276Z,55.64
2022-08-17T03:16:23.034Z,55.73
2022-08-17T03:18:56.498Z,55.70
2022-08-17T03:27:20.460Z,55.87
2022-08-17T03:28:23.341Z,55.76
2022-08-17T03:28:43.771Z,55.76
2022-08-17T03:31:24.321Z,55.71
2022-08-17T03:34:12.622Z,55.82
2022-08-17T03:36:43.684Z,55.79
2022-08-17T03:39:23.406Z,55.69
2022-08-17T03:42:31.962Z,55.56
2022-08-17T03:45:06.656Z,55.51
2022-08-17T03:47:54.361Z,55.57
2022-08-17T03:50:40.890Z,55.48
2022-08-17T03:53:33.880Z,55.44
2022-08-17T03:56:38.395Z,55.43
2022-08-17T03:59:21.181Z,55.40
2022-08-17T04:01:58.248Z,55.30
2022-08-17T04:04:30.369Z,55.30
2022-08-17T04:07:17.211Z,55.31
2022-08-17T04:10:16.477Z,55.27
2022-08-17T04:12:52.543Z,55.37
2022-08-17T04:15:24.455Z,55.30
2022-08-17T04:17:54.929Z,55.25
2022-08-17T04:20:27.367Z,55.27
2022-08-17T04:23:10.592Z,55.23
2022-08-17T04:25:46.098Z,55.33
2022-08-17T04:28:18.248Z,55.39
2022-08-17T04:30:49.247Z,55.44
2022-08-17T04:33:23.634Z,55.37
2022-08-17T04:36:02.216Z,55.28
2022-08-17T04:38:35.625Z,55.21
2022-08-17T04:41:27.440Z,55.12
2022-08-17T04:43:57.992Z,55.10
2022-08-17T04:46:34.175Z,55.06
2022-08-17T04:49:12.580Z,55.01
2022-08-17T04:51:51.042Z,54.88
2022-08-17T04:54:30.664Z,54.92
2022-08-17T04:57:17.791Z,54.84
2022-08-17T05:03:44.031Z,55.10
2022-08-17T05:06:22.278Z,54.97
2022-08-17T05:09:09.807Z,55.59
2022-08-17T05:11:44.877Z,55.22
2022-08-17T05:14:20.463Z,55.30
2022-08-17T05:16:52.154Z,56.06
2022-08-17T05:19:22.344Z,56.23
2022-08-17T05:21:54.086Z,57.23
2022-08-17T05:24:39.837Z,56.66
2022-08-17T05:27:18.863Z,56.66
2022-08-17T05:30:08.133Z,55.35
2022-08-17T05:32:40.703Z,55.33
2022-08-17T05:35:13.000Z,54.86
2022-08-17T05:37:43.836Z,55.22
2022-08-17T05:40:18.439Z,56.96
2022-08-17T05:43:12.743Z,56.89
2022-08-17T05:46:31.875Z,56.38
2022-08-17T05:49:22.737Z,57.28
2022-08-17T05:52:18.890Z,56.69
2022-08-17T05:55:09.364Z,56.99
2022-08-17T05:57:53.029Z,56.56
2022-08-17T06:00:32.590Z,58.25
2022-08-17T06:03:20.630Z,57.47
2022-08-17T06:06:03.931Z,57.34
2022-08-17T06:08:53.799Z,57.51
2022-08-17T06:11:37.723Z,56.37
2022-08-17T06:14:26.031Z,58.14
2022-08-17T06:17:02.534Z,57.43
2022-08-17T06:19:42.789Z,57.03
2022-08-17T06:22:22.519Z,56.16
2022-08-17T06:25:10.317Z,55.78
2022-08-17T06:29:45.384Z,55.24
2022-08-17T06:32:08.693Z,55.13
2022-08-17T06:34:41.220Z,54.99
2022-08-17T06:37:30.617Z,55.21
2022-08-17T06:40:16.596Z,55.37
2022-08-17T06:43:06.705Z,55.13
2022-08-17T06:45:41.999Z,56.68
2022-08-17T06:48:23.900Z,57.26
2022-08-17T06:50:59.595Z,55.18
2022-08-17T06:53:37.253Z,55.86
2022-08-17T06:56:10.033Z,54.86
2022-08-17T06:58:44.436Z,54.90
2022-08-17T07:01:23.504Z,55.31
2022-08-17T07:04:11.551Z,54.44
2022-08-17T07:06:49.004Z,54.19
2022-08-17T07:09:26.330Z,53.86
2022-08-17T07:12:02.879Z,53.27
2022-08-17T07:14:40.767Z,53.29
2022-08-17T07:17:13.917Z,53.11
2022-08-17T07:19:55.526Z,54.65
2022-08-17T07:22:59.628Z,53.78
2022-08-17T07:25:34.495Z,53.81
2022-08-17T07:28:22.455Z,53.23
2022-08-17T07:30:56.096Z,53.14
2022-08-17T07:33:28.186Z,52.98
2022-08-17T07:36:00.347Z,52.46
2022-08-17T07:38:35.365Z,51.60
2022-08-17T07:41:11.167Z,51.19
2022-08-17T07:43:50.429Z,50.93
2022-08-17T07:46:52.460Z,50.57
2022-08-17T07:49:34.997Z,50.19
2022-08-17T07:52:51.384Z,49.98
2022-08-17T07:55:42.050Z,49.49
2022-08-17T07:58:18.248Z,49.15
2022-08-17T08:01:17.881Z,49.02
2022-08-17T08:04:49.883Z,49.34
2022-08-17T08:07:29.058Z,48.88
2022-08-17T08:10:28.709Z,48.57
2022-08-17T08:13:12.318Z,48.79
2022-08-17T08:15:54.612Z,48.37
2022-08-17T08:18:53.285Z,48.08
2022-08-17T08:21:46.118Z,47.92
2022-08-17T08:24:47.220Z,47.83
2022-08-17T08:40:08.426Z,45.97
2022-08-17T08:48:56.722Z,45.78
2022-08-17T08:51:27.156Z,45.45
2022-08-17T08:54:12.345Z,45.28
2022-08-17T08:57:21.436Z,45.36
2022-08-17T08:59:58.376Z,45.20
2022-08-17T09:02:47.311Z,44.70
2022-08-17T09:05:32.124Z,44.74
2022-08-17T09:08:14.580Z,44.31
2022-08-17T09:10:56.459Z,44.31
2022-08-17T09:13:35.459Z,44.09
2022-08-17T09:16:30.031Z,43.78
2022-08-17T09:19:29.940Z,44.20
2022-08-17T09:22:12.696Z,43.63
2022-08-17T09:24:55.322Z,43.91
2022-08-17T09:27:51.797Z,43.53
2022-08-17T09:30:24.453Z,43.61
2022-08-17T09:33:01.297Z,42.82
2022-08-17T09:35:44.552Z,42.92
2022-08-17T09:39:00.816Z,42.84
2022-08-17T09:41:48.983Z,42.73
2022-08-17T09:44:36.173Z,42.33
2022-08-17T09:47:22.544Z,42.38
2022-08-17T09:50:14.326Z,41.74
2022-08-17T09:52:46.893Z,41.97
2022-08-17T09:55:25.654Z,41.77
2022-08-17T09:58:05.849Z,41.42
2022-08-17T10:00:45.205Z,41.42
2022-08-17T10:03:35.547Z,41.89
2022-08-17T10:06:13.737Z,41.46
2022-08-17T10:08:52.579Z,41.26
2022-08-17T10:11:46.387Z,40.97
2022-08-17T10:14:37.723Z,40.83
2022-08-17T10:17:23.545Z,40.76
2022-08-17T10:20:00.372Z,40.69
2022-08-17T10:23:18.608Z,40.51
2022-08-17T10:26:16.971Z,41.01
2022-08-17T10:28:58.885Z,40.64
2022-08-17T10:31:37.945Z,40.45
2022-08-17T10:34:38.716Z,40.23
2022-08-17T10:37:26.446Z,40.12
2022-08-17T10:40:15.258Z,40.17
2022-08-17T10:42:54.924Z,39.91
2022-08-17T10:46:27.658Z,39.21
2022-08-17T10:49:31.222Z,39.03
2022-08-17T10:52:05.302Z,39.02
2022-08-17T10:55:15.828Z,39.12
2022-08-17T10:58:15.571Z,39.22
2022-08-17T11:01:08.321Z,38.89
2022-08-17T11:03:37.785Z,38.57
2022-08-17T11:06:19.517Z,38.25
2022-08-17T11:09:32.773Z,38.07
2022-08-17T11:12:30.868Z,37.82
2022-08-17T11:15:19.782Z,37.38
2022-08-17T11:18:13.296Z,37.63
2022-08-17T11:21:30.445Z,37.27
2022-08-17T11:24:21.134Z,37.15
2022-08-17T11:27:08.705Z,37.04
2022-08-17T11:30:01.478Z,36.54
2022-08-17T11:32:47.169Z,36.21
2022-08-17T11:35:40.624Z,35.59
2022-08-17T11:38:26.116Z,35.28
2022-08-17T11:41:17.806Z,35.11
2022-08-17T11:44:17.613Z,34.75
2022-08-17T11:47:28.051Z,35.09
2022-08-17T11:50:36.344Z,34.86
2022-08-17T11:53:28.743Z,34.63
2022-08-17T11:56:09.856Z,33.90
2022-08-17T11:58:46.427Z,33.75
2022-08-17T12:01:56.705Z,32.84
2022-08-17T12:04:31.684Z,33.06
2022-08-17T12:07:10.261Z,32.91
2022-08-17T12:09:53.989Z,32.89
2022-08-17T12:12:35.058Z,32.62
2022-08-17T12:15:17.227Z,32.39
2022-08-17T12:17:54.610Z,32.06
2022-08-17T12:20:29.868Z,31.94
2022-08-17T12:23:15.759Z,32.04
2022-08-17T12:25:54.881Z,32.07
2022-08-17T12:28:31.498Z,31.82
2022-08-17T12:31:04.729Z,31.69
2022-08-17T12:33:42.404Z,31.44
2022-08-17T12:36:15.528Z,31.51
2022-08-17T12:38:59.582Z,31.61
2022-08-17T12:41:47.286Z,30.92
2022-08-17T12:44:24.753Z,30.82
2022-08-17T12:47:01.278Z,30.14
2022-08-17T12:49:38.191Z,30.03
2022-08-17T12:52:22.711Z,29.62
2022-08-17T12:54:56.131Z,29.11
2022-08-17T12:57:32.601Z,29.27
2022-08-17T13:00:15.384Z,29.19
2022-08-17T13:02:51.928Z,29.39
2022-08-17T13:05:31.269Z,29.35
2022-08-17T13:08:06.624Z,28.87
2022-08-17T13:10:54.283Z,28.47
2022-08-17T13:13:30.038Z,28.73
2022-08-17T13:16:10.783Z,28.43
2022-08-17T13:18:58.165Z,28.55
2022-08-17T13:21:36.417Z,28.23
2022-08-17T13:24:20.100Z,28.17
2022-08-17T13:27:00.847Z,27.86
2022-08-17T13:29:54.860Z,27.31
2022-08-17T13:32:44.029Z,27.35
2022-08-17T13:35:49.970Z,26.37
2022-08-17T13:38:47.677Z,26.75
2022-08-17T13:41:38.750Z,26.70
2022-08-17T13:44:30.867Z,26.95
2022-08-17T13:47:02.348Z,26.77
2022-08-17T13:49:41.592Z,26.73
2022-08-17T13:52:37.897Z,27.36
2022-08-17T13:55:16.277Z,28.75
2022-08-17T13:57:50.200Z,29.00
2022-08-17T14:00:36.535Z,29.25
2022-08-17T14:03:09.980Z,29.32
2022-08-17T14:05:39.792Z,30.05
2022-08-17T14:08:11.516Z,29.73
2022-08-17T14:10:40.769Z,30.09
2022-08-17T14:13:10.664Z,29.77
2022-08-17T14:15:56.210Z,29.76
2022-08-17T14:18:34.291Z,30.08
2022-08-17T14:21:17.811Z,30.39
2022-08-17T14:23:54.878Z,30.38
2022-08-17T14:26:24.379Z,30.63
2022-08-17T14:28:56.632Z,30.78
2022-08-17T14:31:27.075Z,30.62
2022-08-17T14:33:58.794Z,31.14
2022-08-17T14:36:28.132Z,31.18
2022-08-17T14:38:58.008Z,31.48
2022-08-17T14:41:27.090Z,31.84
2022-08-17T14:43:56.296Z,31.85
2022-08-17T14:46:26.073Z,31.23
2022-08-17T14:48:57.511Z,30.89
2022-08-17T14:51:29.967Z,31.06
2022-08-17T14:53:59.061Z,31.12
2022-08-17T14:56:31.755Z,30.84
2022-08-17T14:59:07.587Z,30.87
2022-08-17T15:01:36.985Z,30.72
2022-08-17T15:04:06.477Z,30.07
2022-08-17T15:06:35.595Z,29.97
2022-08-17T15:09:05.292Z,30.03
2022-08-17T15:11:35.222Z,29.91
2022-08-17T15:14:04.575Z,29.91
2022-08-17T15:16:35.833Z,29.28
2022-08-17T15:19:06.524Z,29.40
2022-08-17T15:21:36.453Z,28.71
2022-08-17T15:24:07.445Z,28.69
2022-08-17T15:26:37.355Z,28.98
2022-08-17T15:29:07.005Z,28.96
2022-08-17T15:31:36.765Z,29.16
2022-08-17T15:34:05.807Z,29.10
2022-08-17T15:36:37.792Z,28.66
2022-08-17T15:39:10.844Z,28.34
2022-08-17T15:41:40.385Z,28.25
2022-08-17T15:44:09.633Z,28.13
2022-08-17T15:46:38.631Z,27.88
2022-08-17T15:49:08.840Z,28.05
2022-08-17T15:51:37.890Z,28.21
2022-08-17T15:54:17.056Z,28.22
2022-08-17T15:56:48.701Z,28.13
2022-08-17T15:59:18.445Z,27.74
2022-08-17T16:03:04.644Z,27.51
2022-08-17T16:04:40.824Z,27.29
2022-08-17T16:07:24.460Z,26.94
2022-08-17T16:09:56.092Z,27.01
2022-08-17T16:12:25.355Z,27.11
2022-08-17T16:14:57.507Z,27.14
2022-08-17T16:17:40.291Z,27.22
2022-08-17T16:20:20.067Z,27.32
2022-08-17T16:22:55.778Z,27.27
2022-08-17T16:25:50.376Z,27.50
2022-08-17T16:28:23.209Z,27.44
2022-08-17T16:31:08.108Z,27.59
2022-08-17T16:33:39.306Z,27.73
2022-08-17T16:36:10.941Z,27.75
2022-08-17T16:38:40.486Z,27.85
2022-08-17T16:41:12.326Z,28.01
2022-08-17T16:43:41.442Z,28.29
2022-08-17T16:46:10.819Z,28.24
2022-08-17T16:48:39.977Z,28.39
2022-08-17T16:51:09.050Z,28.54
2022-08-17T16:53:38.102Z,28.69
2022-08-17T16:56:07.777Z,28.98
2022-08-17T16:58:40.528Z,28.96
2022-08-17T17:01:32.502Z,29.06
2022-08-17T17:04:19.989Z,29.55
2022-08-17T17:07:08.893Z,29.71
2022-08-17T17:09:48.769Z,29.98
2022-08-17T17:15:04.168Z,30.66
2022-08-17T17:17:36.845Z,30.67
2022-08-17T17:20:10.431Z,31.01
2022-08-17T17:23:36.175Z,31.17
2022-08-17T17:26:09.659Z,31.62
2022-08-17T17:28:48.243Z,32.05
2022-08-17T17:31:23.224Z,32.40
2022-08-17T17:33:56.622Z,32.52
2022-08-17T17:36:32.318Z,32.87
2022-08-17T17:39:05.750Z,33.04
2022-08-17T17:41:42.110Z,33.18
2022-08-17T17:44:17.883Z,33.68
2022-08-17T17:46:51.702Z,33.72
2022-08-17T17:49:21.480Z,34.17
2022-08-17T17:52:11.059Z,34.42
2022-08-17T17:54:52.926Z,34.73
2022-08-17T17:57:33.411Z,34.97
2022-08-17T18:00:08.389Z,35.11
2022-08-17T18:02:51.394Z,35.25
2022-08-17T18:05:48.462Z,35.49
2022-08-17T18:08:34.588Z,35.95
2022-08-17T18:11:34.909Z,36.13
2022-08-17T18:14:16.929Z,36.60
2022-08-17T18:16:53.930Z,36.66
2022-08-17T18:19:34.059Z,36.67
2022-08-17T18:22:14.142Z,37.19
2022-08-17T18:24:46.330Z,37.14
2022-08-17T18:27:26.081Z,37.23
2022-08-17T18:29:59.033Z,37.23
2022-08-17T18:32:34.055Z,37.48
2022-08-17T18:35:31.139Z,37.58
2022-08-17T18:38:21.099Z,38.20
2022-08-17T18:41:02.375Z,38.22
2022-08-17T18:43:44.522Z,38.29
2022-08-17T18:46:32.814Z,38.52
2022-08-17T18:49:07.180Z,39.18
2022-08-17T18:51:42.181Z,39.17
2022-08-17T18:54:24.990Z,39.34
2022-08-17T18:56:56.995Z,39.84
2022-08-17T18:59:40.050Z,39.71
2022-08-17T19:02:43.447Z,39.95
2022-08-17T19:05:30.249Z,39.84
2022-08-17T19:08:55.404Z,39.72
2022-08-17T19:11:39.526Z,40.03
2022-08-17T19:14:19.314Z,40.25
2022-08-17T19:16:54.523Z,40.41
2022-08-17T19:46:09.170Z,41.39
2022-08-17T19:49:04.148Z,41.34
2022-08-17T19:52:43.391Z,41.35
2022-08-17T19:55:33.281Z,41.23
2022-08-17T19:58:22.678Z,41.30
2022-08-17T20:01:13.211Z,41.74
2022-08-17T20:04:11.230Z,41.86
2022-08-17T20:06:53.528Z,41.93
2022-08-17T20:09:38.919Z,41.88
2022-08-17T20:12:15.680Z,41.94
2022-08-17T20:15:01.873Z,42.20
2022-08-17T20:17:41.504Z,42.30
2022-08-17T20:20:31.849Z,42.49
2022-08-17T20:23:14.695Z,42.86
2022-08-17T20:25:53.716Z,43.01
2022-08-17T20:28:30.665Z,42.99
2022-08-17T20:31:04.981Z,43.92
2022-08-17T20:33:39.501Z,44.35
2022-08-17T20:36:21.882Z,44.16
2022-08-17T20:38:57.313Z,44.30
2022-08-17T20:41:31.928Z,44.29
2022-08-17T20:44:08.963Z,44.25
2022-08-17T20:47:05.138Z,43.81
2022-08-17T20:49:50.370Z,43.67
2022-08-17T20:52:51.404Z,43.70
2022-08-17T20:55:54.877Z,43.70
2022-08-17T20:59:03.234Z,43.88
2022-08-17T21:01:43.309Z,43.75
2022-08-17T21:05:00.646Z,43.68
2022-08-17T21:08:08.972Z,43.56
2022-08-17T21:10:51.692Z,43.85
2022-08-17T21:14:05.228Z,43.76
2022-08-17T21:17:30.184Z,43.92
2022-08-17T21:20:16.009Z,44.05
2022-08-17T21:23:02.526Z,43.99
2022-08-17T21:26:25.570Z,44.14
2022-08-17T21:29:30.925Z,44.20
2022-08-17T21:32:43.146Z,44.36
2022-08-17T21:35:53.215Z,44.26
2022-08-17T21:38:44.279Z,44.47
2022-08-17T21:41:57.856Z,44.56
2022-08-17T21:44:52.392Z,44.62
2022-08-17T21:47:51.867Z,44.87
2022-08-17T21:50:30.068Z,44.79
2022-08-17T21:53:10.837Z,44.79
2022-08-17T21:55:43.277Z,44.88
2022-08-17T21:58:33.566Z,44.84
2022-08-17T22:01:25.387Z,45.11
2022-08-17T22:04:48.174Z,45.04
2022-08-17T22:07:35.109Z,44.97
2022-08-17T22:10:10.466Z,44.91
2022-08-17T22:13:02.427Z,45.04
2022-08-17T22:15:39.958Z,45.08
2022-08-17T22:18:20.009Z,45.18
2022-08-17T22:20:57.835Z,45.30
2022-08-17T22:23:51.713Z,45.33
2022-08-17T22:26:29.088Z,45.35
2022-08-17T22:29:02.701Z,45.39
2022-08-17T22:31:56.756Z,45.47
2022-08-17T22:34:29.069Z,45.48
2022-08-17T22:37:29.256Z,45.57
2022-08-17T22:40:02.280Z,45.55
2022-08-17T22:42:36.252Z,45.41
2022-08-17T22:45:11.027Z,45.66
2022-08-17T22:47:48.972Z,45.80
2022-08-17T22:50:29.257Z,45.85
2022-08-17T22:53:21.396Z,45.93
2022-08-17T22:56:14.609Z,46.02
2022-08-17T22:59:11.792Z,46.05
2022-08-17T23:01:46.800Z,46.12
2022-08-17T23:04:37.460Z,46.07
2022-08-17T23:07:10.090Z,46.34
2022-08-17T23:09:43.360Z,46.35
2022-08-17T23:12:23.942Z,46.42
2022-08-17T23:15:02.218Z,46.47
2022-08-17T23:17:37.605Z,46.62
2022-08-17T23:20:15.400Z,46.59
2022-08-17T23:22:52.756Z,46.57
2022-08-17T23:25:30.137Z,46.70
2022-08-17T23:28:03.781Z,46.82
2022-08-17T23:30:40.701Z,46.90
2022-08-17T23:33:19.861Z,46.92
2022-08-17T23:35:53.002Z,47.02
2022-08-17T23:38:27.175Z,47.13
2022-08-17T23:41:04.704Z,47.04
2022-08-17T23:43:36.533Z,47.04
2022-08-17T23:46:09.630Z,47.11
2022-08-17T23:48:44.338Z,47.09
2022-08-17T23:51:20.434Z,47.07
2022-08-17T23:53:55.750Z,47.01
2022-08-17T23:56:29.024Z,47.01
2022-08-17T23:59:05.398Z,47.10
